Etusivu
METAR-TAF:

METAR-TAF

Lentoasemat :

Quimper, Ranska

Leveyspiiri: 47-58N, Pituuspiiri: 004-10W, korkeus merenpinnasta: 92 m

Tämänhetkinen sää

Tämä raportti tehtiin 10 minuuttia sitten, kello 15.30 UTC
Tuuli 5 kn koillisesta
Lämpötila 13°C
Kosteus 72%
Ilmanpaine 1032 hPa
Näkyvyys 10 km tai enemmän
Pilvistä 2700 ft:n korkeudessa

METAR: LFRQ 211530Z AUTO 04005KT 9999 OVC027 13/08 Q1032 NOSIG

Aika: 16:40 (15:40 UTC)

Sääennuste

Tämä raportti tehtiin 4 tuntia ja 40 minuuttia sitten, kello 11.00 UTC
Ennuste voimassa 21. päivästä klo 12 UTC - 22. päivään klo 12 UTC
Tuuli 3 kn pohjoisesta/koillisesta
Näkyvyys 10 km tai enemmän
Muutamia pilviä 1500 ft:n korkeudessa
Pilvistä 3000 ft:n korkeudessa
Ajoittain
22. päivästä klo 00 UTC - 22. päivään klo 06 UTC
Pilvistä 800 ft:n korkeudessa

TAF: LFRQ 211100Z 2112/2212 03003KT 9999 FEW015 OVC030 TEMPO 2200/2206 OVC008

Säähavainnot ja -ennusteet yli 4000 lentoasemalta (METAR- ja TAF-raportit).

Käytössä olevat sääasemat on merkitty karttaan keltaisilla ja punaisilla pisteillä.

Aseta hiiri pisteen päälle nähdäksesi sääaseman nimen.

Klikkaa sitten nähdäksesi säähavainnot ja -ennusteet.

Kartan vaihtaminen: klikkaa mustalla rastilla varustettuja vihreitä pisteitä, niin voit zoomata sisään; viivalla varustettua vihreää pistettä, niin voit zoomata ulos tai vihreitä nuolia, niin pääset viereisille kartoille.


METAR-TAF: